createdAt,value
2019-05-02T00:02:24.047Z,62.90
2019-05-02T00:04:55.917Z,63.30
2019-05-02T00:07:27.793Z,61.80
2019-05-02T00:09:59.370Z,60.50
2019-05-02T00:12:31.363Z,59.90
2019-05-02T00:15:03.458Z,59.20
2019-05-02T00:17:35.331Z,58.30
2019-05-02T00:20:08.889Z,57.50
2019-05-02T00:22:40.692Z,57.10
2019-05-02T00:25:16.025Z,55.40
2019-05-02T00:27:44.872Z,55.70
2019-05-02T00:30:18.246Z,55.00
2019-05-02T00:32:53.098Z,53.80
2019-05-02T00:35:22.889Z,53.10
2019-05-02T00:37:57.343Z,52.30
2019-05-02T00:40:27.804Z,52.50
2019-05-02T00:42:59.609Z,51.80
2019-05-02T00:45:31.115Z,51.00
2019-05-02T00:48:03.993Z,51.70
2019-05-02T00:50:36.773Z,50.40
2019-05-02T00:53:12.269Z,48.90
2019-05-02T00:55:41.741Z,49.70
2019-05-02T00:58:13.200Z,49.00
2019-05-02T01:00:48.570Z,48.60
2019-05-02T01:03:18.698Z,48.20
2019-05-02T01:05:50.155Z,47.10
2019-05-02T01:08:20.299Z,48.80
2019-05-02T01:10:52.178Z,46.80
2019-05-02T01:13:23.681Z,48.70
2019-05-02T01:15:54.554Z,47.40
2019-05-02T01:18:25.841Z,47.10
2019-05-02T01:20:58.077Z,46.60
2019-05-02T01:23:29.601Z,46.30
2019-05-02T01:26:00.651Z,45.50
2019-05-02T01:28:33.099Z,44.40
2019-05-02T01:31:05.474Z,44.00
2019-05-02T01:33:41.691Z,43.60
2019-05-02T01:36:12.282Z,44.20
2019-05-02T01:38:45.178Z,41.70
2019-05-02T01:41:16.898Z,43.60
2019-05-02T01:43:48.664Z,43.10
2019-05-02T01:46:22.245Z,41.30
2019-05-02T01:48:53.092Z,41.20
2019-05-02T01:51:24.890Z,41.20
2019-05-02T01:53:56.186Z,41.50
2019-05-02T01:56:28.457Z,42.00
2019-05-02T01:58:58.960Z,38.70
2019-05-02T02:01:30.799Z,40.80
2019-05-02T02:04:02.493Z,40.30
2019-05-02T02:06:34.322Z,39.30
2019-05-02T02:09:08.498Z,39.50
2019-05-02T02:11:39.417Z,40.30
2019-05-02T02:14:13.074Z,39.50
2019-05-02T02:16:44.013Z,36.80
2019-05-02T02:19:16.854Z,38.90
2019-05-02T02:21:49.259Z,38.90
2019-05-02T02:24:25.097Z,39.20
2019-05-02T02:26:54.524Z,35.60
2019-05-02T02:29:25.600Z,37.00
2019-05-02T02:31:56.406Z,38.60
2019-05-02T02:34:29.762Z,35.50
2019-05-02T02:37:05.232Z,38.00
2019-05-02T02:39:32.309Z,37.90
2019-05-02T02:42:02.506Z,37.30
2019-05-02T02:44:39.898Z,34.60
2019-05-02T02:47:11.926Z,35.80
2019-05-02T02:49:40.925Z,38.20
2019-05-02T02:52:14.289Z,36.70
2019-05-02T02:54:45.942Z,36.50
2019-05-02T02:57:26.098Z,38.00
2019-05-02T02:59:50.247Z,36.80
2019-05-02T03:02:20.517Z,36.20
2019-05-02T03:04:51.885Z,32.90
2019-05-02T03:07:26.229Z,36.70
2019-05-02T03:09:59.429Z,36.50
2019-05-02T03:12:36.114Z,37.60
2019-05-02T03:15:04.242Z,34.00
2019-05-02T03:17:36.155Z,34.70
2019-05-02T03:20:09.451Z,35.60
2019-05-02T03:22:43.308Z,33.00
2019-05-02T03:25:18.405Z,35.20
2019-05-02T03:27:46.881Z,35.00
2019-05-02T03:30:32.888Z,34.60
2019-05-02T03:33:06.438Z,35.30
2019-05-02T03:35:39.631Z,35.40
2019-05-02T03:37:56.772Z,33.00
2019-05-02T03:40:32.170Z,33.90
2019-05-02T03:42:58.889Z,32.80
2019-05-02T03:45:32.104Z,32.70
2019-05-02T03:48:03.695Z,34.50
2019-05-02T03:50:36.010Z,35.20
2019-05-02T03:53:07.510Z,36.60
2019-05-02T03:55:39.230Z,37.50
2019-05-02T03:58:14.059Z,36.90
2019-05-02T04:00:43.445Z,34.40
2019-05-02T04:03:15.597Z,36.80
2019-05-02T04:05:47.193Z,36.70
2019-05-02T04:08:20.760Z,37.90
2019-05-02T04:10:59.536Z,37.80
2019-05-02T04:13:29.989Z,35.30
2019-05-02T04:16:01.149Z,36.50
2019-05-02T04:18:32.580Z,36.80
2019-05-02T04:21:03.025Z,35.10
2019-05-02T04:23:34.448Z,35.60
2019-05-02T04:26:06.670Z,37.10
2019-05-02T04:28:38.852Z,37.50
2019-05-02T04:31:10.233Z,36.90
2019-05-02T04:33:40.295Z,38.70
2019-05-02T04:36:15.351Z,39.20
2019-05-02T04:38:51.069Z,39.50
2019-05-02T04:41:28.262Z,39.80
2019-05-02T04:43:57.625Z,39.10
2019-05-02T04:46:28.139Z,38.90
2019-05-02T04:48:58.433Z,38.70
2019-05-02T04:51:31.723Z,37.80
2019-05-02T04:54:01.660Z,37.40
2019-05-02T04:56:33.102Z,38.00
2019-05-02T04:59:16.618Z,36.50
2019-05-02T05:01:43.450Z,35.60
2019-05-02T05:04:09.747Z,35.60
2019-05-02T05:06:52.847Z,37.40
2019-05-02T05:09:15.035Z,38.00
2019-05-02T05:11:48.209Z,38.00
2019-05-02T05:14:20.057Z,37.40
2019-05-02T05:16:55.502Z,37.40
2019-05-02T05:19:30.967Z,37.50
2019-05-02T05:22:04.527Z,37.10
2019-05-02T05:24:32.818Z,36.30
2019-05-02T05:27:02.972Z,37.00
2019-05-02T05:29:34.699Z,37.40
2019-05-02T05:32:09.916Z,36.10
2019-05-02T05:34:39.424Z,36.50
2019-05-02T05:37:13.425Z,37.80
2019-05-02T05:39:48.780Z,36.30
2019-05-02T05:42:17.808Z,37.80
2019-05-02T05:44:49.481Z,36.80
2019-05-02T05:47:21.427Z,36.20
2019-05-02T05:49:57.599Z,36.40
2019-05-02T05:52:27.150Z,36.20
2019-05-02T05:54:58.749Z,36.70
2019-05-02T05:57:30.024Z,36.20
2019-05-02T06:00:03.820Z,35.40
2019-05-02T06:02:50.070Z,35.70
2019-05-02T06:05:08.533Z,32.30
2019-05-02T06:07:43.949Z,33.00
2019-05-02T06:10:13.899Z,35.00
2019-05-02T06:12:45.890Z,36.10
2019-05-02T06:15:17.620Z,36.20
2019-05-02T06:17:49.410Z,34.80
2019-05-02T06:20:21.142Z,35.40
2019-05-02T06:22:54.948Z,35.50
2019-05-02T06:25:34.067Z,36.20
2019-05-02T06:28:00.218Z,35.70
2019-05-02T06:30:32.372Z,35.60
2019-05-02T06:33:03.286Z,35.80
2019-05-02T06:35:35.106Z,34.60
2019-05-02T06:38:06.861Z,36.50
2019-05-02T06:40:39.320Z,36.70
2019-05-02T06:43:13.068Z,37.00
2019-05-02T06:45:45.000Z,35.60
2019-05-02T06:48:17.650Z,36.60
2019-05-02T06:50:50.240Z,35.50
2019-05-02T06:53:21.564Z,36.50
2019-05-02T06:55:52.163Z,36.50
2019-05-02T06:58:24.019Z,34.20
2019-05-02T07:00:58.969Z,34.20
2019-05-02T07:03:30.260Z,35.10
2019-05-02T07:06:02.661Z,34.60
2019-05-02T07:08:35.032Z,35.60
2019-05-02T07:11:08.029Z,34.90
2019-05-02T07:13:42.176Z,33.70
2019-05-02T07:16:16.193Z,35.90
2019-05-02T07:18:49.575Z,35.50
2019-05-02T07:21:23.496Z,35.50
2019-05-02T07:23:55.002Z,35.60
2019-05-02T07:26:27.194Z,35.30
2019-05-02T07:28:58.946Z,35.00
2019-05-02T07:31:30.818Z,35.10
2019-05-02T07:34:02.293Z,35.60
2019-05-02T07:36:36.395Z,35.80
2019-05-02T07:39:07.939Z,35.90
2019-05-02T07:41:39.903Z,36.50
2019-05-02T07:44:11.625Z,35.70
2019-05-02T07:46:51.532Z,36.10
2019-05-02T07:49:15.913Z,35.30
2019-05-02T07:51:47.462Z,36.10
2019-05-02T07:54:19.449Z,36.10
2019-05-02T07:56:53.423Z,35.70
2019-05-02T07:59:25.303Z,35.20
2019-05-02T08:01:57.037Z,35.10
2019-05-02T08:04:28.579Z,35.00
2019-05-02T08:06:59.899Z,35.00
2019-05-02T08:09:30.419Z,34.20
2019-05-02T08:12:01.513Z,33.70
2019-05-02T08:14:34.479Z,34.50
2019-05-02T08:17:16.320Z,32.80
2019-05-02T08:19:41.925Z,34.20
2019-05-02T08:22:13.847Z,33.60
2019-05-02T08:24:45.751Z,31.30
2019-05-02T08:27:19.025Z,32.10
2019-05-02T08:29:51.323Z,33.70
2019-05-02T08:32:23.089Z,33.30
2019-05-02T08:34:54.336Z,33.80
2019-05-02T08:37:24.673Z,34.00
2019-05-02T08:39:56.520Z,31.70
2019-05-02T08:42:32.630Z,33.10
2019-05-02T08:45:03.210Z,32.60
2019-05-02T08:47:34.970Z,32.20
2019-05-02T08:50:08.737Z,32.60
2019-05-02T08:52:42.187Z,31.20
2019-05-02T08:55:13.646Z,32.40
2019-05-02T08:57:45.251Z,32.30
2019-05-02T09:00:17.621Z,32.70
2019-05-02T09:02:48.984Z,32.70
2019-05-02T09:05:19.869Z,33.20
2019-05-02T09:07:51.405Z,32.50
2019-05-02T09:10:23.127Z,33.30
2019-05-02T09:12:54.914Z,33.50
2019-05-02T09:15:26.688Z,33.30
2019-05-02T09:17:58.395Z,33.40
2019-05-02T09:20:31.561Z,33.70
2019-05-02T09:23:03.280Z,34.30
2019-05-02T09:25:35.023Z,34.50
2019-05-02T09:28:07.342Z,34.60
2019-05-02T09:30:38.303Z,34.30
2019-05-02T09:33:11.668Z,34.70
2019-05-02T09:35:42.383Z,34.50
2019-05-02T09:38:16.221Z,34.10
2019-05-02T09:40:47.252Z,34.10
2019-05-02T09:43:19.814Z,34.40
2019-05-02T09:45:51.999Z,34.40
2019-05-02T09:48:26.753Z,34.10
2019-05-02T09:50:58.138Z,34.30
2019-05-02T09:53:29.383Z,33.80
2019-05-02T09:56:02.130Z,34.20
2019-05-02T09:58:33.935Z,34.40
2019-05-02T10:01:06.657Z,34.60
2019-05-02T10:03:38.422Z,34.90
2019-05-02T10:06:13.972Z,35.10
2019-05-02T10:08:46.314Z,35.10
2019-05-02T10:11:16.901Z,35.50
2019-05-02T10:13:48.665Z,35.60
2019-05-02T10:16:23.528Z,35.60
2019-05-02T10:18:53.273Z,35.70
2019-05-02T10:21:25.050Z,35.60
2019-05-02T10:23:59.483Z,35.90
2019-05-02T10:26:30.158Z,36.00
2019-05-02T10:29:02.149Z,36.10
2019-05-02T10:31:37.602Z,36.00
2019-05-02T10:34:08.412Z,36.10
2019-05-02T10:36:43.223Z,36.10
2019-05-02T10:39:15.697Z,36.10
2019-05-02T10:41:46.173Z,36.10
2019-05-02T10:44:17.930Z,35.90
2019-05-02T10:46:52.335Z,36.00
2019-05-02T10:49:25.291Z,35.70
2019-05-02T10:51:56.429Z,36.00
2019-05-02T10:54:32.562Z,36.00
2019-05-02T10:57:02.305Z,36.10
2019-05-02T10:59:33.986Z,36.30
2019-05-02T11:02:06.596Z,36.50
2019-05-02T11:04:39.073Z,36.80
2019-05-02T11:07:11.946Z,37.10
2019-05-02T11:09:43.591Z,37.40
2019-05-02T11:12:21.125Z,37.80
2019-05-02T11:14:51.653Z,38.00
2019-05-02T11:17:24.728Z,38.30
2019-05-02T11:19:57.741Z,38.50
2019-05-02T11:22:29.375Z,38.60
2019-05-02T11:25:01.855Z,38.80
2019-05-02T11:27:33.759Z,39.00
2019-05-02T11:30:06.540Z,39.20
2019-05-02T11:32:37.588Z,39.20
2019-05-02T11:35:12.066Z,39.30
2019-05-02T11:37:42.910Z,39.60
2019-05-02T11:40:13.359Z,40.30
2019-05-02T11:42:44.978Z,40.40
2019-05-02T11:45:15.705Z,40.20
2019-05-02T11:47:46.861Z,40.90
2019-05-02T11:50:18.333Z,40.50
2019-05-02T11:52:49.779Z,40.90
2019-05-02T11:55:27.348Z,41.00
2019-05-02T11:57:54.930Z,41.10
2019-05-02T12:00:25.340Z,41.30
2019-05-02T12:02:58.333Z,42.70
2019-05-02T12:05:35.688Z,42.00
2019-05-02T12:08:07.929Z,42.10
2019-05-02T12:10:39.576Z,42.00
2019-05-02T12:13:15.581Z,42.40
2019-05-02T12:15:44.467Z,43.70
2019-05-02T12:18:15.870Z,42.50
2019-05-02T12:20:47.395Z,42.50
2019-05-02T12:23:18.981Z,42.30
2019-05-02T12:25:51.998Z,42.30
2019-05-02T12:28:23.540Z,42.30
2019-05-02T12:30:55.388Z,42.30
2019-05-02T12:33:28.010Z,42.20
2019-05-02T12:35:59.585Z,42.50
2019-05-02T12:38:32.414Z,42.70
2019-05-02T12:41:04.155Z,42.30
2019-05-02T12:43:35.885Z,42.20
2019-05-02T12:46:06.579Z,42.20
2019-05-02T12:48:37.979Z,44.30
2019-05-02T12:51:09.556Z,42.60
2019-05-02T12:53:41.793Z,43.30
2019-05-02T12:56:13.779Z,43.40
2019-05-02T12:58:44.136Z,43.50
2019-05-02T13:01:15.446Z,43.90
2019-05-02T13:03:48.453Z,43.30
2019-05-02T13:06:21.840Z,43.30
2019-05-02T13:08:52.812Z,43.30
2019-05-02T13:11:27.696Z,43.60
2019-05-02T13:13:59.385Z,43.80
2019-05-02T13:16:33.346Z,44.40
2019-05-02T13:19:06.172Z,44.50
2019-05-02T13:21:42.146Z,44.70
2019-05-02T13:24:16.202Z,45.10
2019-05-02T13:26:45.630Z,45.10
2019-05-02T13:29:15.834Z,45.30
2019-05-02T13:31:48.849Z,46.70
2019-05-02T13:34:22.107Z,46.40
2019-05-02T13:36:57.640Z,46.10
2019-05-02T13:39:28.379Z,46.20
2019-05-02T13:41:59.201Z,46.60
2019-05-02T13:44:32.678Z,46.90
2019-05-02T13:47:03.714Z,47.10
2019-05-02T13:49:34.825Z,47.10
2019-05-02T13:52:05.650Z,48.10
2019-05-02T13:54:37.051Z,48.80
2019-05-02T13:57:08.210Z,48.20
2019-05-02T13:59:41.463Z,47.70
2019-05-02T14:02:14.879Z,47.50
2019-05-02T14:04:46.340Z,47.20
2019-05-02T14:07:18.012Z,47.20
2019-05-02T14:09:58.052Z,47.50
2019-05-02T14:12:25.047Z,48.00
2019-05-02T14:14:56.642Z,47.70
2019-05-02T14:17:28.440Z,48.30
2019-05-02T14:20:08.612Z,49.70
2019-05-02T14:22:33.272Z,48.20
2019-05-02T14:25:04.483Z,48.00
2019-05-02T14:27:35.845Z,47.80
2019-05-02T14:30:09.254Z,47.70
2019-05-02T14:32:42.421Z,47.70
2019-05-02T14:35:18.766Z,49.20
2019-05-02T14:37:48.932Z,48.70
2019-05-02T14:40:22.403Z,48.50
2019-05-02T14:42:57.777Z,48.90
2019-05-02T14:45:30.995Z,48.20
2019-05-02T14:48:17.764Z,48.40
2019-05-02T14:50:36.561Z,48.50
2019-05-02T14:53:06.070Z,48.70
2019-05-02T14:55:39.391Z,48.40
2019-05-02T14:58:12.365Z,48.40
2019-05-02T15:00:47.885Z,48.00
2019-05-02T15:03:19.068Z,48.30
2019-05-02T15:05:52.667Z,48.10
2019-05-02T15:08:23.795Z,48.10
2019-05-02T15:10:56.646Z,48.20
2019-05-02T15:13:27.068Z,48.60
2019-05-02T15:15:58.885Z,49.10
2019-05-02T15:18:32.126Z,49.50
2019-05-02T15:21:11.074Z,49.60
2019-05-02T15:23:36.704Z,49.60
2019-05-02T15:26:07.695Z,49.70
2019-05-02T15:28:39.578Z,49.80
2019-05-02T15:31:11.800Z,50.50
2019-05-02T15:33:43.664Z,52.60
2019-05-02T15:36:15.825Z,52.80
2019-05-02T15:38:47.555Z,51.20
2019-05-02T15:41:19.197Z,50.80
2019-05-02T15:43:52.371Z,51.00
2019-05-02T15:46:28.158Z,51.00
2019-05-02T15:49:01.688Z,51.10
2019-05-02T15:51:30.263Z,51.20
2019-05-02T15:54:08.212Z,51.60
2019-05-02T15:56:37.306Z,52.20
2019-05-02T15:59:09.322Z,52.10
2019-05-02T16:01:41.556Z,51.80
2019-05-02T16:04:17.239Z,53.70
2019-05-02T16:06:48.783Z,52.30
2019-05-02T16:09:21.619Z,52.20
2019-05-02T16:11:56.742Z,54.20
2019-05-02T16:14:26.999Z,52.60
2019-05-02T16:17:01.055Z,52.50
2019-05-02T16:19:33.313Z,52.70
2019-05-02T16:22:08.000Z,52.50
2019-05-02T16:24:39.530Z,52.30
2019-05-02T16:27:11.699Z,52.60
2019-05-02T16:29:43.171Z,52.10
2019-05-02T16:32:16.156Z,53.60
2019-05-02T16:34:48.999Z,56.60
2019-05-02T16:37:22.527Z,56.20
2019-05-02T16:39:53.938Z,54.00
2019-05-02T16:42:25.835Z,53.60
2019-05-02T16:44:57.056Z,53.60
2019-05-02T16:47:28.943Z,53.60
2019-05-02T16:50:02.283Z,53.60
2019-05-02T16:52:33.282Z,54.60
2019-05-02T16:55:05.629Z,53.70
2019-05-02T16:57:38.098Z,58.20
2019-05-02T17:00:12.935Z,58.10
2019-05-02T17:02:46.373Z,55.90
2019-05-02T17:05:17.843Z,54.70
2019-05-02T17:07:49.462Z,54.50
2019-05-02T17:10:22.607Z,56.60
2019-05-02T17:12:57.694Z,55.20
2019-05-02T17:15:31.144Z,55.50
2019-05-02T17:18:04.896Z,54.90
2019-05-02T17:20:34.374Z,55.10
2019-05-02T17:23:07.507Z,54.80
2019-05-02T17:25:41.532Z,54.90
2019-05-02T17:28:13.290Z,54.40
2019-05-02T17:30:44.617Z,54.90
2019-05-02T17:33:16.506Z,55.20
2019-05-02T17:35:51.550Z,55.10
2019-05-02T17:38:27.328Z,56.70
2019-05-02T17:40:54.465Z,55.50
2019-05-02T17:43:26.156Z,55.20
2019-05-02T17:45:57.433Z,55.50
2019-05-02T17:48:29.427Z,55.90
2019-05-02T17:51:02.696Z,55.90
2019-05-02T17:53:41.634Z,56.00
2019-05-02T17:56:11.988Z,56.30
2019-05-02T17:58:47.388Z,57.60
2019-05-02T18:01:14.367Z,60.60
2019-05-02T18:03:45.559Z,59.40
2019-05-02T18:06:17.336Z,58.50
2019-05-02T18:08:51.661Z,57.20
2019-05-02T18:11:22.987Z,56.80
2019-05-02T18:13:54.674Z,57.10
2019-05-02T18:16:26.416Z,56.90
2019-05-02T18:18:58.195Z,56.80
2019-05-02T18:21:29.366Z,57.00
2019-05-02T18:24:04.433Z,57.10
2019-05-02T18:26:33.426Z,57.20
2019-05-02T18:29:06.756Z,57.70
2019-05-02T18:31:40.067Z,58.30
2019-05-02T18:34:14.329Z,57.50
2019-05-02T18:36:43.963Z,57.40
2019-05-02T18:39:14.960Z,57.40
2019-05-02T18:41:46.403Z,57.70
2019-05-02T18:44:18.719Z,57.80
2019-05-02T18:46:51.512Z,57.90
2019-05-02T18:49:23.460Z,58.10
2019-05-02T18:51:57.265Z,58.20
2019-05-02T18:54:27.014Z,60.70
2019-05-02T18:56:58.762Z,59.00
2019-05-02T18:59:31.913Z,58.50
2019-05-02T19:02:03.323Z,58.30
2019-05-02T19:04:38.080Z,58.10
2019-05-02T19:07:12.146Z,59.20
2019-05-02T19:09:49.082Z,60.60
2019-05-02T19:12:19.355Z,59.10
2019-05-02T19:14:45.855Z,59.10
2019-05-02T19:17:16.847Z,59.00
2019-05-02T19:19:47.803Z,59.50
2019-05-02T19:22:18.680Z,59.10
2019-05-02T19:24:49.509Z,59.40
2019-05-02T19:27:25.575Z,59.40
2019-05-02T19:29:54.812Z,59.60
2019-05-02T19:32:28.401Z,60.50
2019-05-02T19:35:03.195Z,59.40
2019-05-02T19:37:31.593Z,60.20
2019-05-02T19:40:02.726Z,61.80
2019-05-02T19:42:33.538Z,60.70
2019-05-02T19:45:11.401Z,59.70
2019-05-02T19:47:37.310Z,59.80
2019-05-02T19:50:12.387Z,59.90
2019-05-02T19:52:43.698Z,60.20
2019-05-02T19:55:20.084Z,59.80
2019-05-02T19:57:46.839Z,59.70
2019-05-02T20:00:18.680Z,62.80
2019-05-02T20:02:52.161Z,60.20
2019-05-02T20:05:25.465Z,62.70
2019-05-02T20:07:56.551Z,60.40
2019-05-02T20:10:27.722Z,60.40
2019-05-02T20:12:59.544Z,60.20
2019-05-02T20:15:32.777Z,60.10
2019-05-02T20:18:04.640Z,60.70
2019-05-02T20:20:40.487Z,60.90
2019-05-02T20:23:16.196Z,60.70
2019-05-02T20:25:44.641Z,61.10
2019-05-02T20:28:15.600Z,61.20
2019-05-02T20:30:46.778Z,61.30
2019-05-02T20:33:18.231Z,65.40
2019-05-02T20:35:49.984Z,66.70
2019-05-02T20:38:21.895Z,66.10
2019-05-02T20:40:52.327Z,66.10
2019-05-02T20:43:23.946Z,67.10
2019-05-02T20:45:55.488Z,66.00
2019-05-02T20:48:26.330Z,66.30
2019-05-02T20:50:57.293Z,66.20
2019-05-02T20:53:31.361Z,64.60
2019-05-02T20:56:01.818Z,64.60
2019-05-02T20:58:33.764Z,65.00
2019-05-02T21:01:08.782Z,65.30
2019-05-02T21:03:38.562Z,65.50
2019-05-02T21:06:12.220Z,66.80
2019-05-02T21:08:45.055Z,66.00
2019-05-02T21:11:16.927Z,66.40
2019-05-02T21:13:48.243Z,64.70
2019-05-02T21:16:21.714Z,64.40
2019-05-02T21:18:52.458Z,64.00
2019-05-02T21:21:25.662Z,63.70
2019-05-02T21:23:56.591Z,63.60
2019-05-02T21:26:28.244Z,65.00
2019-05-02T21:28:59.898Z,63.50
2019-05-02T21:31:31.918Z,64.70
2019-05-02T21:34:02.589Z,65.30
2019-05-02T21:36:33.848Z,67.90
2019-05-02T21:39:06.307Z,66.20
2019-05-02T21:41:37.250Z,66.50
2019-05-02T21:44:09.024Z,64.70
2019-05-02T21:46:42.274Z,64.00
2019-05-02T21:49:14.149Z,64.50
2019-05-02T21:51:46.675Z,65.20
2019-05-02T21:54:19.199Z,66.60
2019-05-02T21:56:52.254Z,64.80
2019-05-02T21:59:23.795Z,65.30
2019-05-02T22:01:57.698Z,65.00
2019-05-02T22:04:31.644Z,66.40
2019-05-02T22:07:02.535Z,66.50
2019-05-02T22:09:33.690Z,66.60
2019-05-02T22:12:04.552Z,65.70
2019-05-02T22:14:36.193Z,65.30
2019-05-02T22:17:08.058Z,65.00
2019-05-02T22:19:41.593Z,64.80
2019-05-02T22:22:12.788Z,64.80
2019-05-02T22:24:44.545Z,63.50
2019-05-02T22:27:15.418Z,65.30
2019-05-02T22:29:46.268Z,64.30
2019-05-02T22:32:17.553Z,66.00
2019-05-02T22:34:49.228Z,64.00
2019-05-02T22:37:22.136Z,65.10
2019-05-02T22:39:54.227Z,65.30
2019-05-02T22:42:25.067Z,65.10
2019-05-02T22:44:56.423Z,65.80
2019-05-02T22:47:27.278Z,67.70
2019-05-02T22:49:58.753Z,67.40
2019-05-02T22:52:32.165Z,66.00
2019-05-02T22:55:03.122Z,66.70
2019-05-02T22:57:34.656Z,67.00
2019-05-02T23:00:07.283Z,67.40
2019-05-02T23:02:38.879Z,68.80
2019-05-02T23:05:12.297Z,68.70
2019-05-02T23:07:43.338Z,67.80
2019-05-02T23:10:14.982Z,68.80
2019-05-02T23:12:46.456Z,67.30
2019-05-02T23:15:18.206Z,68.30
2019-05-02T23:17:52.173Z,67.10
2019-05-02T23:20:24.395Z,66.80
2019-05-02T23:22:55.324Z,65.70
2019-05-02T23:25:28.154Z,66.30
2019-05-02T23:28:02.466Z,65.20
2019-05-02T23:30:34.074Z,65.30
2019-05-02T23:33:05.913Z,64.70
2019-05-02T23:35:37.343Z,64.60
2019-05-02T23:38:08.738Z,64.40
2019-05-02T23:40:41.992Z,64.50
2019-05-02T23:43:13.185Z,63.90
2019-05-02T23:45:44.233Z,63.90
2019-05-02T23:48:15.691Z,62.80
2019-05-02T23:50:46.738Z,64.00
2019-05-02T23:53:18.282Z,62.80
2019-05-02T23:55:49.530Z,62.50
2019-05-02T23:58:22.653Z,61.80
